Airfield :
LOGIN :

Register | Disclaimer

   EN    FR    IT 

 










Legend :    VFR   Marginal VFR   IFR   Intensive IFR   Very Intensive IFR
Visi :
Ceiling :
>= 8 km
>= 3000ft
5 to 8 km
1000 to 3000 ft
1500m to 5 km
500 to 1000 ft
800 to 1500m
200 to 500 ft
< 800m
< 200 ft
Symbols :   Thunderstorms  Fog  Heavy snow  Heavy precipitations  Wind > 20 kt
SIGMETs :     Misc.  Thunderstorms  Icing  Turbulence  Mountain Waves  Volcanic Ashes







- Airport Elevation : 63 ft
- IATA code : BZM


EHWO - Woensdrecht Airbase

CURRENT METAR :
  • 190655Z AUTO 14003KT 9999 FEW120 OVC260 12/12 Q1010 BLU 12003KT 6000 NSC

EXPIRED METARs :
  • 190641Z AUTO 12003KT 8000 BR OVC270 12/11 Q1010 BLU 12003KT 6000 NSC
  • 190629Z AUTO VRB02KT 8000 BR FEW120 OVC270 12/12 Q1010 BLU 12003KT 5000 BR NSC TEMPO 3000
  • 190615Z AUTO 12002KT 8000 BR OVC120 12/12 Q1010 BLU 12003KT 5000 BR NSC TEMPO 3000
  • 190555Z AUTO 12003KT 7000 BR OVC120 12/12 Q1010 WHT 10003KT 3000 BR NSC
  • 190539Z AUTO 11002KT 6000 BR OVC130 12/12 Q1010 WHT 10003KT 3000 BR NSC
  • 190529Z AUTO 10003KT 070V140 5000 BR OVC120 12/12 Q1010 WHT 10003KT 3000 BR NSC
  • 190525Z AUTO 10003KT 4800 BR OVC120 12/12 Q1010 GRN 10003KT 3000 BR NSC
  • 190515Z AUTO 10003KT 060V130 6000 BR OVC120 12/12 Q1010 WHT
  • 190456Z AUTO 08003KT 3300 BR OVC130 10/10 Q1010 YLO
  • 190455Z AUTO 07003KT 4700 BR OVC130 11/11 Q1010 GRN
  • 190445Z AUTO VRB02KT 4500 BR BKN130 OVC290 11/11 Q1010 GRN
  • 190425Z AUTO 07002KT 4300 BR OVC120 12/12 Q1010 GRN
  • 190415Z AUTO 07003KT 4900 BR OVC120 11/11 Q1010 GRN

TAF AMD TAF EHWO
Valid from the 19 at 05:00 until the 19 at 17:00 UTC


190637Z 1905/1917 VRB02KT 6000 NSC
BECMG 1907/1909 16006KT
No reported NOTAMs for that airfield.



MET'MAP, your aeronautical weather chart ! - Copyright ORBIFLY December 2007 - Disclaimer

ORBIFLY MET'MAP TEAM :

Programming & Development : Alexandra Zaïnal
Concept & Development : Baudouin d'Aumeries
Co-Development & Prog : Marc-Olivier Méhu
Technical & hardware support : Manuel Goepfert

Contact : metmap@orbifly.com




SOURCES & CREDITS :

   NOAA